Terminal Aerodrome Forecast
Issued by NWS

Home | Current Version | Previous Version | Text Only | Print | Product List | Glossary On
Versions: 1 2 3 4 5 6 7 8 9 10 11 12 13 14
825
FTUS43 KOAX 281120
TAFBFF
TAF
KBFF 281120Z 2812/2912 VRB03KT 6SM BR FEW002
      TEMPO 2812/2815 3/4SM BR VV002
     FM281800 27008KT P6SM VCTS BKN100CB
     FM290300 33005KT P6SM SCT100=

USA.gov is the U.S. government's official web portal to all federal, state and local government web resources and services.